Time;durP1;ratioP1;P1;durP2;ratioP2;P2;SDS_P1;SDS_P2;PMS_P1;PMS_P2;Temp;Humidity;BMP_temperature;BMP_pressure;BME280_temperature;BME280_humidity;BME280_pressure;Samples;Min_cycle;Max_cycle;Signal;HPM_P1;HPM_P2
2023/03/16 00:00:47;;;;;;;17.43;13.40;;;;;;;-2.85;100.00;97471.25;5023269;28;20302;-68
2023/03/16 00:03:18;;;;;;;13.67;12.30;;;;;;;-2.75;100.00;97474.97;5036917;28;20219;-68
2023/03/16 00:05:46;;;;;;;12.97;11.77;;;;;;;-2.67;100.00;97484.84;5038108;28;20443;-68
2023/03/16 00:08:14;;;;;;;14.30;11.70;;;;;;;-2.51;100.00;97475.22;5033977;28;20353;-68
2023/03/16 00:10:45;;;;;;;13.17;11.77;;;;;;;-2.40;100.00;97473.72;4982195;28;20221;-68
2023/03/16 00:13:15;;;;;;;13.27;11.77;;;;;;;-2.34;100.00;97468.97;5040227;28;20575;-68
2023/03/16 00:15:49;;;;;;;15.47;12.70;;;;;;;-2.26;100.00;97475.44;5017774;28;20202;-68
2023/03/16 00:18:17;;;;;;;13.63;11.90;;;;;;;-2.28;100.00;97479.91;5034384;28;20752;-68
2023/03/16 00:20:45;;;;;;;26.07;13.47;;;;;;;-2.39;100.00;97481.41;5035821;28;20466;-68
2023/03/16 00:23:13;;;;;;;14.70;11.33;;;;;;;-2.34;100.00;97483.72;5032561;28;20222;-68
2023/03/16 00:25:41;;;;;;;21.53;12.67;;;;;;;-2.34;100.00;97473.31;5002955;28;20702;-68
2023/03/16 00:28:09;;;;;;;45.73;14.03;;;;;;;-2.24;100.00;97489.16;5031135;28;20257;-67
2023/03/16 00:30:38;;;;;;;13.27;10.37;;;;;;;-2.19;100.00;97495.75;5033011;28;20683;-67
2023/03/16 00:33:05;;;;;;;14.07;11.30;;;;;;;-2.23;100.00;97485.63;5008521;28;20211;-67
2023/03/16 00:35:33;;;;;;;17.33;11.93;;;;;;;-2.22;100.00;97489.91;5038436;28;20266;-67
2023/03/16 00:38:01;;;;;;;15.00;12.17;;;;;;;-2.28;100.00;97485.09;5033531;28;20471;-68
2023/03/16 00:40:32;;;;;;;19.83;13.07;;;;;;;-2.31;100.00;97490.47;5031015;28;20207;-67
2023/03/16 00:43:00;;;;;;;25.70;13.83;;;;;;;-2.26;100.00;97488.44;4991136;28;20332;-67
2023/03/16 00:45:28;;;;;;;13.17;11.50;;;;;;;-2.24;100.00;97496.97;5037141;28;20293;-68
2023/03/16 00:47:57;;;;;;;36.63;14.00;;;;;;;-2.29;100.00;97493.81;5016586;28;20219;-68
2023/03/16 00:50:25;;;;;;;14.73;10.60;;;;;;;-2.26;100.00;97498.81;5040181;28;20602;-67
2023/03/16 00:52:53;;;;;;;15.37;11.80;;;;;;;-2.29;100.00;97499.00;5036248;28;20286;-68
2023/03/16 00:55:21;;;;;;;16.90;9.80;;;;;;;-2.26;100.00;97498.81;5027141;28;20222;-67
2023/03/16 00:57:49;;;;;;;29.43;12.33;;;;;;;-2.37;100.00;97496.88;4990431;28;20229;-67
2023/03/16 01:00:19;;;;;;;13.77;9.47;;;;;;;-2.35;100.00;97497.63;5033230;28;20730;-67
2023/03/16 01:02:47;;;;;;;38.90;18.17;;;;;;;-2.37;100.00;97494.28;5038078;28;20227;-67
2023/03/16 01:05:17;;;;;;;19.87;10.23;;;;;;;-2.52;100.00;97493.47;5018073;28;20211;-67
2023/03/16 01:07:45;;;;;;;36.70;13.53;;;;;;;-2.66;100.00;97500.34;5032629;28;20249;-67
2023/03/16 01:10:13;;;;;;;13.20;9.33;;;;;;;-2.61;100.00;97497.47;5035179;28;20212;-67
2023/03/16 01:12:44;;;;;;;27.33;10.70;;;;;;;-2.71;100.00;97497.19;4985614;28;20207;-68
2023/03/16 01:15:12;;;;;;;37.80;11.13;;;;;;;-2.70;100.00;97501.47;5029666;28;20547;-67
2023/03/16 01:17:40;;;;;;;13.50;9.63;;;;;;;-2.71;100.00;97497.19;5035207;28;20215;-67
2023/03/16 01:20:11;;;;;;;12.73;9.20;;;;;;;-2.63;100.00;97494.97;5016461;28;20210;-68
2023/03/16 01:22:41;;;;;;;22.97;9.40;;;;;;;-2.55;100.00;97489.31;5035680;28;20215;-67
2023/03/16 01:25:11;;;;;;;14.93;9.23;;;;;;;-2.57;100.00;97480.78;5038913;28;20206;-68
2023/03/16 01:27:38;;;;;;;17.63;9.33;;;;;;;-2.57;100.00;97485.97;5042844;28;20226;-67
2023/03/16 01:30:07;;;;;;;14.13;10.17;;;;;;;-2.62;100.00;97496.63;4990573;28;20446;-67
2023/03/16 01:32:34;;;;;;;33.77;12.07;;;;;;;-2.64;100.00;97482.09;5041224;28;20202;-68
2023/03/16 01:35:03;;;;;;;11.70;9.20;;;;;;;-2.57;100.00;97492.91;5022739;28;20211;-67
2023/03/16 01:37:31;;;;;;;10.03;8.17;;;;;;;-2.48;100.00;97487.16;5038389;28;20548;-67
2023/03/16 01:40:01;;;;;;;17.37;10.13;;;;;;;-2.54;100.00;97488.38;5039353;28;20781;-68
2023/03/16 01:42:28;;;;;;;59.47;12.40;;;;;;;-2.68;100.00;97489.22;5042541;28;20299;-67
2023/03/16 01:45:00;;;;;;;14.07;7.60;;;;;;;-2.62;100.00;97496.63;4993858;28;20634;-68
2023/03/16 01:47:36;;;;;;;13.07;9.37;;;;;;;-2.81;100.00;97480.53;5031073;28;20559;-68
2023/03/16 01:50:05;;;;;;;11.90;8.50;;;;;;;-2.76;100.00;97488.88;5022510;28;20202;-68
2023/03/16 01:52:36;;;;;;;15.70;9.00;;;;;;;-2.79;100.00;97478.69;5038498;28;20209;-68
2023/03/16 01:55:07;;;;;;;10.97;8.30;;;;;;;-2.76;100.00;97473.31;5039101;28;20211;-68
2023/03/16 01:57:38;;;;;;;11.00;8.60;;;;;;;-2.66;100.00;97474.41;5040382;28;20225;-67
2023/03/16 02:00:09;;;;;;;9.67;8.13;;;;;;;-2.68;100.00;97486.63;4990652;28;20221;-67
2023/03/16 02:02:42;;;;;;;14.07;9.30;;;;;;;-2.67;100.00;97477.06;5032018;28;20234;-67
2023/03/16 02:05:12;;;;;;;14.27;10.33;;;;;;;-2.64;100.00;97477.72;5017113;28;20206;-67
2023/03/16 02:07:43;;;;;;;15.37;9.33;;;;;;;-2.52;100.00;97481.34;5033973;28;20219;-67
2023/03/16 02:10:14;;;;;;;16.50;10.70;;;;;;;-2.74;100.00;97483.56;5035176;28;20209;-67
2023/03/16 02:12:42;;;;;;;12.73;10.17;;;;;;;-2.84;100.00;97491.06;5041524;28;20203;-67
2023/03/16 02:15:14;;;;;;;12.40;8.80;;;;;;;-2.81;100.00;97477.94;4976198;28;20943;-68
2023/03/16 02:17:43;;;;;;;18.30;10.87;;;;;;;-2.80;100.00;97477.84;5026924;28;20234;-68
2023/03/16 02:20:22;;;;;;;23.07;10.83;;;;;;;-2.81;100.00;97481.34;5022250;28;20280;-68
2023/03/16 02:22:53;;;;;;;33.73;11.50;;;;;;;-2.68;100.00;97484.03;5036891;28;20233;-68
2023/03/16 02:25:24;;;;;;;45.63;11.27;;;;;;;-2.75;100.00;97482.75;5036691;28;20861;-68
2023/03/16 02:27:57;;;;;;;14.20;10.10;;;;;;;-2.74;100.00;97491.34;5045284;28;20223;-68
2023/03/16 02:30:26;;;;;;;25.37;11.03;;;;;;;-2.81;100.00;97488.31;4979705;28;20259;-68
2023/03/16 02:32:54;;;;;;;12.53;9.23;;;;;;;-2.82;100.00;97478.88;5039734;28;20203;-68
2023/03/16 02:35:22;;;;;;;14.70;10.23;;;;;;;-2.77;100.00;97485.41;5043132;28;20569;-68
2023/03/16 02:37:51;;;;;;;11.63;9.27;;;;;;;-2.79;100.00;97489.06;5017641;28;20233;-68
2023/03/16 02:40:23;;;;;;;13.20;9.77;;;;;;;-2.72;100.00;97479.13;5037005;28;20503;-68
2023/03/16 02:42:54;;;;;;;14.13;10.30;;;;;;;-2.68;100.00;97468.47;5042696;28;20206;-68
2023/03/16 02:45:23;;;;;;;14.73;9.43;;;;;;;-2.70;100.00;97483.31;5009004;28;20205;-68
2023/03/16 02:47:53;;;;;;;13.70;9.53;;;;;;;-2.77;100.00;97480.22;4985599;28;20241;-68
2023/03/16 02:50:21;;;;;;;21.07;11.83;;;;;;;-2.90;100.00;97481.91;5039601;28;20436;-68
2023/03/16 02:52:48;;;;;;;32.77;11.60;;;;;;;-3.01;100.00;97473.94;5009726;28;20238;-68
2023/03/16 02:55:16;;;;;;;12.13;9.97;;;;;;;-2.96;100.00;97482.28;5040341;28;20339;-68
2023/03/16 02:57:44;;;;;;;13.60;9.47;;;;;;;-2.91;100.00;97481.06;5039549;28;20222;-68
2023/03/16 03:00:16;;;;;;;11.20;8.70;;;;;;;-2.91;100.00;97490.63;5040511;28;20202;-68
2023/03/16 03:02:44;;;;;;;11.40;8.90;;;;;;;-2.89;100.00;97488.75;4987650;28;20992;-68
2023/03/16 03:05:13;;;;;;;11.53;8.57;;;;;;;-2.84;100.00;97493.66;5036906;28;20756;-68
2023/03/16 03:07:41;;;;;;;12.07;8.73;;;;;;;-2.87;100.00;97491.25;5015475;28;20646;-67
2023/03/16 03:10:09;;;;;;;12.03;8.87;;;;;;;-2.99;100.00;97485.06;5031798;28;20341;-68
2023/03/16 03:12:37;;;;;;;9.70;8.67;;;;;;;-2.88;100.00;97498.22;5039934;28;20395;-67
2023/03/16 03:15:06;;;;;;;13.70;8.70;;;;;;;-2.84;100.00;97501.44;5035674;28;21061;-68
2023/03/16 03:17:33;;;;;;;14.37;9.07;;;;;;;-2.93;100.00;97503.66;4990578;28;20654;-68
2023/03/16 03:20:06;;;;;;;12.00;8.37;;;;;;;-2.83;100.00;97503.94;5042372;28;20235;-67
2023/03/16 03:22:35;;;;;;;11.53;8.77;;;;;;;-2.76;100.00;97509.63;5011919;28;20439;-67
2023/03/16 03:25:03;;;;;;;11.67;8.50;;;;;;;-2.89;100.00;97498.28;5035926;28;20526;-68
2023/03/16 03:27:32;;;;;;;9.37;8.17;;;;;;;-2.78;100.00;97501.91;5036946;28;20223;-67
2023/03/16 03:30:00;;;;;;;10.37;8.60;;;;;;;-2.83;100.00;97497.94;5035836;28;20552;-68
2023/03/16 03:32:28;;;;;;;10.47;8.03;;;;;;;-2.80;100.00;97495.16;5039150;28;20211;-67
2023/03/16 03:34:55;;;;;;;10.60;8.03;;;;;;;-3.11;100.00;97499.59;4981090;28;21076;-67
2023/03/16 03:37:24;;;;;;;10.00;7.57;;;;;;;-3.18;100.00;97475.78;5017937;28;20626;-67
2023/03/16 03:39:53;;;;;;;10.77;8.53;;;;;;;-3.22;100.00;97493.28;5039382;28;20703;-67
2023/03/16 03:42:22;;;;;;;9.63;7.90;;;;;;;-3.10;100.00;97485.69;5040847;28;20210;-67
2023/03/16 03:44:50;;;;;;;10.00;8.30;;;;;;;-3.02;100.00;97486.06;5034982;28;20206;-67
2023/03/16 03:47:19;;;;;;;8.83;8.03;;;;;;;-3.02;100.00;97482.66;5031083;28;20836;-67
2023/03/16 03:49:46;;;;;;;10.43;8.03;;;;;;;-3.04;100.00;97482.72;4976946;28;20277;-67
2023/03/16 03:52:14;;;;;;;9.77;8.37;;;;;;;-3.05;100.00;97484.47;5026370;28;20385;-67
2023/03/16 03:54:42;;;;;;;9.53;8.53;;;;;;;-2.94;100.00;97491.63;5015480;28;20868;-67
2023/03/16 03:57:11;;;;;;;12.07;7.70;;;;;;;-3.10;100.00;97493.47;5037527;28;20517;-67
2023/03/16 03:59:42;;;;;;;8.60;7.70;;;;;;;-3.09;100.00;97484.78;5032165;28;20506;-66
2023/03/16 04:02:10;;;;;;;9.47;7.97;;;;;;;-3.13;100.00;97496.25;5037833;28;20448;-67
2023/03/16 04:04:38;;;;;;;10.50;7.67;;;;;;;-3.25;100.00;97500.38;4984732;28;20212;-67
2023/03/16 04:07:06;;;;;;;10.70;8.37;;;;;;;-3.26;100.00;97498.72;5032694;28;20268;-67
2023/03/16 04:09:34;;;;;;;8.83;7.93;;;;;;;-3.23;100.00;97496.75;5034450;28;20223;-67
2023/03/16 04:12:01;;;;;;;8.37;7.53;;;;;;;-3.21;100.00;97502.72;5035603;28;20588;-66
2023/03/16 04:14:31;;;;;;;11.47;8.60;;;;;;;-3.19;100.00;97502.63;5034594;28;20232;-67
2023/03/16 04:16:59;;;;;;;10.20;8.00;;;;;;;-3.07;100.00;97508.84;5038760;28;20646;-66
2023/03/16 04:19:27;;;;;;;10.17;8.60;;;;;;;-2.98;100.00;97502.28;5037360;28;20203;-66
2023/03/16 04:21:55;;;;;;;12.67;9.67;;;;;;;-2.97;100.00;97509.97;4987549;28;20922;-67
2023/03/16 04:24:22;;;;;;;10.43;8.17;;;;;;;-2.96;100.00;97505.63;5030841;28;20212;-68
2023/03/16 04:26:50;;;;;;;13.43;9.40;;;;;;;-3.04;100.00;97500.88;5038843;28;20222;-67
2023/03/16 04:29:18;;;;;;;12.90;9.80;;;;;;;-3.29;100.00;97511.84;5039113;28;20427;-67
2023/03/16 04:31:47;;;;;;;9.43;8.43;;;;;;;-3.26;100.00;97507.31;5036982;28;20689;-67
2023/03/16 04:34:15;;;;;;;11.20;8.53;;;;;;;-3.25;100.00;97501.22;5010180;28;20210;-67
2023/03/16 04:36:42;;;;;;;10.70;9.53;;;;;;;-3.38;100.00;97497.66;4987844;28;20875;-67
2023/03/16 04:39:10;;;;;;;10.37;8.20;;;;;;;-3.33;100.00;97506.00;5041993;28;20198;-67
2023/03/16 04:41:37;;;;;;;9.73;8.73;;;;;;;-3.27;100.00;97497.88;5043843;28;20203;-66
2023/03/16 04:44:05;;;;;;;11.10;9.07;;;;;;;-3.30;100.00;97490.28;5047442;28;20585;-67
2023/03/16 04:46:34;;;;;;;14.47;11.50;;;;;;;-3.30;100.00;97489.47;5035611;28;20344;-67
2023/03/16 04:49:03;;;;;;;18.37;13.70;;;;;;;-3.21;100.00;97484.56;5039923;28;20599;-67
2023/03/16 04:51:31;;;;;;;12.07;9.73;;;;;;;-3.26;100.00;97477.97;4986963;28;21143;-67
2023/03/16 04:53:59;;;;;;;11.47;9.33;;;;;;;-3.32;100.00;97480.94;5035984;28;20194;-67
2023/03/16 04:56:26;;;;;;;10.63;8.20;;;;;;;-3.29;100.00;97470.38;5043211;28;20434;-67
2023/03/16 04:58:55;;;;;;;10.33;8.80;;;;;;;-3.43;100.00;97474.59;5038571;28;20541;-68
2023/03/16 05:01:23;;;;;;;10.30;8.20;;;;;;;-3.33;100.00;97474.91;5044558;28;20356;-68
2023/03/16 05:03:52;;;;;;;10.90;9.23;;;;;;;-3.30;100.00;97474.72;5042390;28;20690;-68
2023/03/16 05:06:21;;;;;;;11.03;9.63;;;;;;;-3.31;100.00;97467.88;5036387;28;20231;-68
2023/03/16 05:08:48;;;;;;;11.07;9.20;;;;;;;-3.33;100.00;97468.91;4964393;28;20839;-69
2023/03/16 05:11:16;;;;;;;10.70;8.77;;;;;;;-3.42;100.00;97465.91;5045146;28;20694;-69
2023/03/16 05:13:44;;;;;;;10.30;8.10;;;;;;;-3.52;100.00;97477.72;5026717;28;20237;-67
2023/03/16 05:16:11;;;;;;;11.10;9.00;;;;;;;-3.46;100.00;97472.19;5044038;28;20387;-67
2023/03/16 05:18:39;;;;;;;13.13;8.93;;;;;;;-3.51;100.00;97469.03;5035903;28;20844;-67
2023/03/16 05:21:06;;;;;;;11.73;9.13;;;;;;;-3.39;100.00;97476.13;5044750;28;20206;-67
2023/03/16 05:23:35;;;;;;;13.93;11.00;;;;;;;-3.43;100.00;97487.56;4987099;28;20218;-69
2023/03/16 05:26:03;;;;;;;11.37;9.37;;;;;;;-3.43;100.00;97479.78;5044226;28;20203;-68
2023/03/16 05:28:31;;;;;;;11.63;9.07;;;;;;;-3.38;100.00;97476.94;5026768;28;20582;-69
2023/03/16 05:31:02;;;;;;;12.03;9.17;;;;;;;-3.29;100.00;97479.00;5049375;28;20236;-68
2023/03/16 05:33:30;;;;;;;11.83;10.57;;;;;;;-3.28;100.00;97472.88;5046186;28;20353;-69
2023/03/16 05:35:57;;;;;;;11.47;8.90;;;;;;;-3.15;100.00;97479.94;5013330;28;20261;-68
2023/03/16 05:38:26;;;;;;;11.90;9.97;;;;;;;-3.03;100.00;97486.16;4981458;28;20361;-68
2023/03/16 05:41:00;;;;;;;21.53;10.43;;;;;;;-3.02;100.00;97488.66;5035175;28;20446;-68
2023/03/16 05:43:29;;;;;;;9.23;7.90;;;;;;;-3.07;100.00;97488.09;5024539;28;20475;-68
2023/03/16 05:45:57;;;;;;;9.00;7.67;;;;;;;-3.20;100.00;97481.06;5042623;28;20464;-69
2023/03/16 05:48:25;;;;;;;10.17;8.90;;;;;;;-3.21;100.00;97479.41;5040694;28;20772;-69
2023/03/16 05:50:53;;;;;;;9.73;7.73;;;;;;;-3.26;100.00;97475.41;5047411;28;20567;-68
2023/03/16 05:53:27;;;;;;;10.63;8.70;;;;;;;-3.28;100.00;97462.50;5005306;28;20326;-69
2023/03/16 05:55:56;;;;;;;10.67;8.33;;;;;;;-3.07;100.00;97468.19;5050534;28;20256;-68
2023/03/16 05:58:24;;;;;;;10.40;9.00;;;;;;;-3.12;100.00;97459.03;5032036;28;20577;-69
2023/03/16 06:00:54;;;;;;;10.47;8.77;;;;;;;-2.92;100.00;97478.59;5042823;28;20844;-69
2023/03/16 06:03:22;;;;;;;11.10;9.93;;;;;;;-2.78;100.00;97470.78;5038088;28;20622;-69
2023/03/16 06:05:49;;;;;;;10.93;9.03;;;;;;;-2.94;100.00;97459.69;5045625;28;20199;-69
2023/03/16 06:08:17;;;;;;;11.40;8.70;;;;;;;-2.71;100.00;97470.41;5033705;28;20788;-69
2023/03/16 06:10:46;;;;;;;11.50;9.23;;;;;;;-2.86;100.00;97466.97;4999287;28;20244;-69
2023/03/16 06:13:15;;;;;;;12.17;9.63;;;;;;;-2.97;100.00;97467.66;5043035;28;20581;-68
2023/03/16 06:15:43;;;;;;;11.20;9.17;;;;;;;-2.85;100.00;97479.03;5032166;28;20238;-67
2023/03/16 06:18:11;;;;;;;11.10;10.00;;;;;;;-2.67;100.00;97484.84;5043986;28;20718;-68
2023/03/16 06:20:39;;;;;;;13.80;11.17;;;;;;;-2.61;100.00;97484.50;5043835;28;20315;-68
2023/03/16 06:23:06;;;;;;;13.70;11.57;;;;;;;-2.43;100.00;97482.53;5037729;28;20550;-68
2023/03/16 06:25:35;;;;;;;11.00;9.70;;;;;;;-2.44;100.00;97482.63;4991393;28;21425;-69
2023/03/16 06:28:05;;;;;;;11.40;10.00;;;;;;;-2.42;100.00;97476.41;5047339;28;20307;-70
2023/03/16 06:30:34;;;;;;;9.30;8.10;;;;;;;-2.48;100.00;97477.63;5028660;28;20539;-69
2023/03/16 06:33:02;;;;;;;9.53;8.43;;;;;;;-2.59;100.00;97484.41;5040290;28;20211;-69
2023/03/16 06:35:30;;;;;;;10.47;8.30;;;;;;;-2.48;100.00;97482.81;5041377;28;20421;-67
2023/03/16 06:37:57;;;;;;;8.70;7.53;;;;;;;-2.30;100.00;97487.78;5043209;28;20668;-67
2023/03/16 06:40:28;;;;;;;8.63;7.43;;;;;;;-2.47;100.00;97494.00;4997107;28;20194;-68
2023/03/16 06:42:56;;;;;;;8.20;7.47;;;;;;;-2.52;100.00;97498.66;5045858;28;20243;-67
2023/03/16 06:45:24;;;;;;;9.10;8.20;;;;;;;-2.32;100.00;97494.81;5043502;28;20927;-67
2023/03/16 06:47:53;;;;;;;8.83;8.03;;;;;;;-2.07;100.00;97499.34;5027934;28;20233;-67
2023/03/16 06:50:21;;;;;;;10.03;9.03;;;;;;;-2.10;100.00;97496.91;5040191;28;20222;-67
2023/03/16 06:52:48;;;;;;;10.37;9.37;;;;;;;-2.15;100.00;97498.97;5034702;28;20370;-67
2023/03/16 06:55:16;;;;;;;9.57;8.67;;;;;;;-2.01;100.00;97494.69;5037078;28;20207;-67
2023/03/16 06:57:43;;;;;;;8.47;7.77;;;;;;;-2.19;100.00;97495.75;4986990;28;20434;-66
2023/03/16 07:00:14;;;;;;;8.40;7.63;;;;;;;-1.98;100.00;97497.91;5043277;28;20679;-68
2023/03/16 07:02:42;;;;;;;8.63;7.83;;;;;;;-1.94;100.00;97496.78;5025563;28;20427;-67
2023/03/16 07:05:12;;;;;;;8.77;7.87;;;;;;;-1.79;100.00;97497.56;5039631;28;20373;-67
2023/03/16 07:07:41;;;;;;;8.23;7.47;;;;;;;-1.71;100.00;97501.44;5037815;28;20500;-68
2023/03/16 07:10:11;;;;;;;9.77;8.47;;;;;;;-1.70;100.00;97506.53;5042105;28;20758;-67
2023/03/16 07:12:39;;;;;;;9.70;8.77;;;;;;;-1.43;100.00;97508.28;4986508;28;20419;-67
2023/03/16 07:15:07;;;;;;;9.77;8.77;;;;;;;-1.49;100.00;97506.91;5041803;28;20855;-67
2023/03/16 07:17:34;;;;;;;9.13;8.33;;;;;;;-1.15;100.00;97508.22;5022990;28;20557;-67
2023/03/16 07:20:04;;;;;;;9.10;7.57;;;;;;;-1.70;100.00;97500.53;5039573;28;20590;-67
2023/03/16 07:22:33;;;;;;;7.63;6.87;;;;;;;-1.88;100.00;97479.97;5030490;28;20287;-67
2023/03/16 07:25:01;;;;;;;8.50;7.70;;;;;;;-1.33;100.00;97501.53;5038282;28;20202;-67
2023/03/16 07:27:29;;;;;;;7.97;7.37;;;;;;;-1.15;100.00;97500.41;4973487;28;20238;-68
2023/03/16 07:29:56;;;;;;;7.93;7.23;;;;;;;-1.10;100.00;97506.13;5037325;28;20199;-68
2023/03/16 07:32:24;;;;;;;7.87;7.13;;;;;;;-0.76;100.00;97496.06;5026270;28;20741;-67
2023/03/16 07:34:52;;;;;;;8.00;7.30;;;;;;;-0.64;100.00;97503.00;5014873;28;20300;-67
2023/03/16 07:37:20;;;;;;;8.07;7.47;;;;;;;-0.78;100.00;97490.94;5031209;28;20648;-68
2023/03/16 07:39:53;;;;;;;7.60;6.90;;;;;;;-0.52;100.00;97480.50;5040336;28;20947;-67
2023/03/16 07:42:24;;;;;;;9.07;8.13;;;;;;;-0.83;100.00;97495.63;5009383;28;20272;-68
2023/03/16 07:44:52;;;;;;;8.70;7.03;;;;;;;-0.93;100.00;97505.00;5034973;28;20198;-67
2023/03/16 07:47:20;;;;;;;8.27;7.40;;;;;;;-0.82;100.00;97509.50;5029499;28;20710;-67
2023/03/16 07:49:51;;;;;;;8.20;7.40;;;;;;;-0.69;100.00;97505.09;5018605;28;20211;-67
2023/03/16 07:52:19;;;;;;;8.77;7.97;;;;;;;-0.25;100.00;97499.50;5036732;28;20262;-67
2023/03/16 07:54:47;;;;;;;8.50;7.70;;;;;;;-0.04;100.00;97500.59;5040678;28;20972;-67
2023/03/16 07:57:16;;;;;;;8.17;7.37;;;;;;;-0.05;100.00;97500.72;5037066;28;20781;-68
2023/03/16 07:59:44;;;;;;;8.77;7.97;;;;;;;0.24;100.00;97509.06;4989462;28;20319;-67
2023/03/16 08:02:13;;;;;;;8.17;7.40;;;;;;;0.59;100.00;97504.00;5040824;28;20615;-67
2023/03/16 08:04:42;;;;;;;8.80;8.00;;;;;;;0.37;100.00;97500.34;5001986;28;20433;-67
2023/03/16 08:07:09;;;;;;;8.47;7.77;;;;;;;0.76;100.00;97500.09;5035112;28;20225;-67
2023/03/16 08:09:37;;;;;;;8.30;7.50;;;;;;;1.06;100.00;97510.03;5035548;28;20361;-67
2023/03/16 08:12:06;;;;;;;8.63;7.83;;;;;;;1.21;100.00;97501.97;5036089;28;20610;-67
2023/03/16 08:14:35;;;;;;;8.43;7.73;;;;;;;1.36;100.00;97499.97;4988442;28;21067;-67
2023/03/16 08:17:04;;;;;;;7.40;6.77;;;;;;;1.46;100.00;97505.34;5039995;28;20292;-67
2023/03/16 08:19:33;;;;;;;7.07;6.53;;;;;;;1.27;100.00;97498.91;5019530;28;20304;-67
2023/03/16 08:22:00;;;;;;;7.67;6.97;;;;;;;1.13;100.00;97503.41;5014311;28;20240;-67
2023/03/16 08:24:29;;;;;;;7.50;6.90;;;;;;;1.03;100.00;97499.84;5036411;28;20211;-67
2023/03/16 08:26:57;;;;;;;7.60;7.00;;;;;;;0.89;100.00;97497.41;5038428;28;20648;-67
2023/03/16 08:29:28;;;;;;;7.47;6.70;;;;;;;0.60;100.00;97501.25;4986456;28;20207;-68
2023/03/16 08:31:57;;;;;;;7.50;6.77;;;;;;;0.42;100.00;97485.19;5037591;28;20405;-67
2023/03/16 08:34:25;;;;;;;7.63;6.93;;;;;;;0.73;100.00;97493.34;5029162;28;20264;-68
2023/03/16 08:36:54;;;;;;;6.97;6.47;;;;;;;0.80;100.00;97493.75;5019391;28;20848;-67
2023/03/16 08:39:21;;;;;;;8.67;7.90;;;;;;;0.86;100.00;97488.06;5045413;28;20596;-68
2023/03/16 08:41:49;;;;;;;7.03;6.53;;;;;;;0.92;100.00;97486.75;5047265;28;20667;-67
2023/03/16 08:44:18;;;;;;;7.57;6.87;;;;;;;1.19;100.00;97481.25;5017916;28;20703;-68
2023/03/16 08:46:47;;;;;;;7.77;7.17;;;;;;;1.41;100.00;97488.25;5030620;28;20770;-67
2023/03/16 08:49:16;;;;;;;8.47;7.67;;;;;;;1.23;100.00;97473.97;5038552;28;20226;-68
2023/03/16 08:51:43;;;;;;;8.40;7.70;;;;;;;0.92;100.00;97473.69;5033226;28;20305;-68
2023/03/16 08:54:11;;;;;;;7.67;7.07;;;;;;;1.24;100.00;97473.88;5022029;28;20307;-67
2023/03/16 08:56:39;;;;;;;7.20;6.70;;;;;;;1.29;100.00;97473.50;5043684;28;20460;-67
2023/03/16 08:59:07;;;;;;;7.37;6.77;;;;;;;1.55;100.00;97463.66;5018380;28;20203;-68
2023/03/16 09:01:49;;;;;;;6.67;6.17;;;;;;;1.79;100.00;97470.50;5036066;28;20199;-67
2023/03/16 09:04:20;;;;;;;7.20;6.60;;;;;;;1.78;100.00;97465.44;5044690;28;20210;-67
2023/03/16 09:06:50;;;;;;;7.43;6.83;;;;;;;2.09;100.00;97463.78;5038326;28;20384;-67
2023/03/16 09:09:34;;;;;;;6.33;5.83;;;;;;;2.63;100.00;97457.75;5038594;28;20792;-67
2023/03/16 09:12:03;;;;;;;6.37;5.87;;;;;;;2.46;100.00;97444.25;5048382;28;20226;-67
2023/03/16 09:14:31;;;;;;;6.83;6.23;;;;;;;2.13;100.00;97441.69;4976757;28;21365;-66
2023/03/16 09:16:58;;;;;;;6.80;6.10;;;;;;;2.50;100.00;97457.94;5045803;28;20226;-67
2023/03/16 09:19:30;;;;;;;6.83;6.33;;;;;;;2.50;100.00;97450.94;5044462;28;20225;-67
2023/03/16 09:22:17;;;;;;;6.80;6.20;;;;;;;3.04;100.00;97451.69;5025504;28;20207;-67
2023/03/16 09:24:45;;;;;;;6.63;6.13;;;;;;;3.32;100.00;97456.38;5038890;28;20247;-67
2023/03/16 09:27:12;;;;;;;5.57;5.17;;;;;;;3.10;100.00;97457.38;5042250;28;20857;-67
2023/03/16 09:29:41;;;;;;;6.70;6.20;;;;;;;2.88;100.00;97457.38;5049006;28;20244;-66
2023/03/16 09:32:09;;;;;;;6.97;6.47;;;;;;;3.25;100.00;97461.28;4992461;28;20647;-67
2023/03/16 09:34:39;;;;;;;6.60;6.10;;;;;;;3.50;100.00;97460.97;5021905;28;20264;-67
2023/03/16 09:37:06;;;;;;;6.13;5.63;;;;;;;3.03;99.32;97470.13;5023178;28;20467;-67
2023/03/16 09:39:34;;;;;;;4.90;4.60;;;;;;;2.92;99.60;97454.50;5021105;28;20202;-67
2023/03/16 09:42:07;;;;;;;6.37;5.73;;;;;;;3.12;98.95;97458.06;5038587;28;20218;-66
2023/03/16 09:44:42;;;;;;;5.80;5.30;;;;;;;3.22;99.62;97448.47;5041066;28;20327;-67
2023/03/16 09:47:11;;;;;;;6.63;6.13;;;;;;;3.41;96.01;97449.47;4992778;28;20681;-67
2023/03/16 09:49:45;;;;;;;6.30;5.70;;;;;;;3.35;93.98;97442.16;5040315;28;20415;-67
2023/03/16 09:52:20;;;;;;;5.70;5.20;;;;;;;3.25;95.07;97432.47;5033948;28;20234;-67
2023/03/16 09:54:51;;;;;;;5.50;5.10;;;;;;;3.49;95.97;97426.09;5014520;28;20623;-67
2023/03/16 09:57:25;;;;;;;5.60;5.20;;;;;;;3.54;90.94;97431.75;5039908;28;20227;-67
2023/03/16 09:59:52;;;;;;;5.57;5.10;;;;;;;3.31;89.25;97442.44;5039301;28;20203;-67
2023/03/16 10:02:40;;;;;;;5.37;4.90;;;;;;;3.46;88.35;97439.47;5002407;28;20207;-67
2023/03/16 10:05:10;;;;;;;6.87;5.50;;;;;;;3.55;88.58;97435.19;5042419;28;20207;-67
2023/03/16 10:07:44;;;;;;;5.00;4.63;;;;;;;3.50;85.85;97432.16;5031994;28;20483;-67
2023/03/16 10:10:24;;;;;;;7.23;4.93;;;;;;;3.71;86.96;97438.16;5009233;28;20771;-66
2023/03/16 10:12:53;;;;;;;4.53;4.23;;;;;;;3.83;86.20;97435.41;5039243;28;20508;-66
2023/03/16 10:15:25;;;;;;;5.03;4.53;;;;;;;3.90;83.42;97436.53;5041687;28;20226;-67
2023/03/16 10:17:56;;;;;;;4.60;4.17;;;;;;;3.80;82.57;97430.44;5041791;28;20332;-66
2023/03/16 10:20:27;;;;;;;5.23;4.60;;;;;;;3.57;82.61;97421.00;4993075;28;20218;-67
2023/03/16 10:22:58;;;;;;;5.60;5.20;;;;;;;3.54;84.78;97418.66;5036686;28;20203;-66
2023/03/16 10:25:29;;;;;;;4.97;4.57;;;;;;;3.67;85.49;97421.03;5000134;28;20210;-67
2023/03/16 10:27:57;;;;;;;4.40;4.10;;;;;;;3.53;83.73;97418.78;5044301;28;21081;-66
2023/03/16 10:30:27;;;;;;;5.23;4.93;;;;;;;3.72;83.45;97416.22;5040821;28;20211;-67
2023/03/16 10:32:56;;;;;;;5.20;4.80;;;;;;;3.82;83.32;97407.53;5036336;28;20233;-67
2023/03/16 10:35:38;;;;;;;5.00;4.60;;;;;;;3.77;83.20;97407.94;4993705;28;20211;-67
2023/03/16 10:38:07;;;;;;;4.47;4.17;;;;;;;3.80;82.82;97404.22;5035148;28;20770;-67
2023/03/16 10:40:37;;;;;;;4.70;4.40;;;;;;;3.75;82.00;97404.63;5002227;28;20452;-67
2023/03/16 10:43:08;;;;;;;5.07;4.67;;;;;;;3.78;82.17;97414.03;5046166;28;20194;-66
2023/03/16 10:45:36;;;;;;;3.87;3.57;;;;;;;3.80;81.62;97409.47;5043356;28;20597;-66
2023/03/16 10:48:08;;;;;;;3.37;3.00;;;;;;;4.24;77.84;97414.34;5037438;28;20218;-66
2023/03/16 10:50:37;;;;;;;2.53;2.33;;;;;;;4.33;73.38;97421.38;4994480;28;20414;-67
2023/03/16 10:53:05;;;;;;;2.50;2.40;;;;;;;4.24;73.22;97422.22;5034533;28;20393;-67
2023/03/16 10:55:42;;;;;;;4.13;3.83;;;;;;;4.32;75.14;97425.78;5016650;28;20498;-68
2023/03/16 10:58:10;;;;;;;3.23;3.03;;;;;;;4.34;74.82;97423.03;5039012;28;20229;-68
2023/03/16 11:00:42;;;;;;;2.70;2.50;;;;;;;4.52;70.51;97419.69;5038505;28;20207;-68
2023/03/16 11:03:21;;;;;;;5.90;5.50;;;;;;;4.27;78.71;97411.44;5039114;28;20252;-68
2023/03/16 11:05:59;;;;;;;6.00;5.60;;;;;;;4.18;80.03;97413.94;4989328;28;20943;-68
2023/03/16 11:08:28;;;;;;;6.10;5.70;;;;;;;4.23;79.59;97410.88;5031653;28;20215;-68
2023/03/16 11:10:57;;;;;;;6.73;6.17;;;;;;;4.44;81.25;97402.88;5010291;28;20535;-67
2023/03/16 11:13:32;;;;;;;5.70;5.30;;;;;;;4.38;79.68;97402.63;5030740;28;20250;-68
2023/03/16 11:16:04;;;;;;;6.07;5.57;;;;;;;3.91;79.61;97406.72;5039762;28;20232;-68
2023/03/16 11:18:35;;;;;;;7.07;6.47;;;;;;;4.17;82.02;97411.44;5041911;28;20538;-67
2023/03/16 11:21:08;;;;;;;6.57;6.07;;;;;;;4.24;82.41;97404.66;4991686;28;20206;-68
2023/03/16 11:23:39;;;;;;;8.43;7.63;;;;;;;4.55;83.79;97394.00;5021733;28;20290;-68
2023/03/16 11:26:12;;;;;;;6.47;5.97;;;;;;;4.43;80.39;97400.41;5038765;28;20212;-69
2023/03/16 11:28:43;;;;;;;7.20;6.50;;;;;;;4.46;80.40;97393.06;5024035;28;20568;-69
2023/03/16 11:31:18;;;;;;;6.53;6.03;;;;;;;4.43;78.17;97388.09;5032957;28;20203;-69
2023/03/16 11:33:47;;;;;;;6.67;6.17;;;;;;;4.67;79.55;97376.31;5038642;28;20237;-69